sensor_id;sensor_type;location;lat;lon;timestamp;pressure;altitude;pressure_sealevel;temperature;humidity
46724;BME280;32463;48.298;11.620;2023-03-16T00:02:18;96716.31;;;-0.94;100.00
46724;BME280;32463;48.298;11.620;2023-03-16T00:04:44;96724.84;;;-0.95;100.00
46724;BME280;32463;48.298;11.620;2023-03-16T00:07:12;96718.69;;;-0.91;100.00
46724;BME280;32463;48.298;11.620;2023-03-16T00:09:39;96720.75;;;-0.82;100.00
46724;BME280;32463;48.298;11.620;2023-03-16T00:12:13;96712.22;;;-0.81;100.00
46724;BME280;32463;48.298;11.620;2023-03-16T00:14:48;96721.59;;;-0.81;100.00
46724;BME280;32463;48.298;11.620;2023-03-16T00:17:17;96704.34;;;-0.92;100.00
46724;BME280;32463;48.298;11.620;2023-03-16T00:19:48;96714.53;;;-0.92;100.00
46724;BME280;32463;48.298;11.620;2023-03-16T00:22:22;96712.75;;;-1.07;100.00
46724;BME280;32463;48.298;11.620;2023-03-16T00:24:49;96716.34;;;-1.11;100.00
46724;BME280;32463;48.298;11.620;2023-03-16T00:27:18;96718.88;;;-1.11;100.00
46724;BME280;32463;48.298;11.620;2023-03-16T00:29:47;96722.63;;;-1.18;100.00
46724;BME280;32463;48.298;11.620;2023-03-16T00:32:27;96725.25;;;-1.20;100.00
46724;BME280;32463;48.298;11.620;2023-03-16T00:34:54;96722.97;;;-1.24;100.00
46724;BME280;32463;48.298;11.620;2023-03-16T00:37:22;96703.91;;;-1.33;100.00
46724;BME280;32463;48.298;11.620;2023-03-16T00:39:50;96713.69;;;-1.43;100.00
46724;BME280;32463;48.298;11.620;2023-03-16T00:42:18;96704.50;;;-1.45;100.00
46724;BME280;32463;48.298;11.620;2023-03-16T00:44:45;96710.94;;;-1.38;100.00
46724;BME280;32463;48.298;11.620;2023-03-16T00:47:12;96725.97;;;-1.51;100.00
46724;BME280;32463;48.298;11.620;2023-03-16T00:49:40;96726.13;;;-1.54;100.00
46724;BME280;32463;48.298;11.620;2023-03-16T00:52:08;96739.41;;;-1.49;100.00
46724;BME280;32463;48.298;11.620;2023-03-16T00:54:43;96731.94;;;-1.52;100.00
46724;BME280;32463;48.298;11.620;2023-03-16T00:57:12;96734.06;;;-1.60;100.00
46724;BME280;32463;48.298;11.620;2023-03-16T00:59:39;96728.22;;;-1.62;100.00
46724;BME280;32463;48.298;11.620;2023-03-16T01:02:07;96716.16;;;-1.76;100.00
46724;BME280;32463;48.298;11.620;2023-03-16T01:04:35;96723.13;;;-1.79;100.00
46724;BME280;32463;48.298;11.620;2023-03-16T01:07:05;96724.00;;;-1.80;100.00
46724;BME280;32463;48.298;11.620;2023-03-16T01:09:33;96727.63;;;-1.84;100.00
46724;BME280;32463;48.298;11.620;2023-03-16T01:12:03;96723.88;;;-1.77;100.00
46724;BME280;32463;48.298;11.620;2023-03-16T01:14:31;96727.16;;;-1.75;100.00
46724;BME280;32463;48.298;11.620;2023-03-16T01:16:59;96734.50;;;-1.69;100.00
46724;BME280;32463;48.298;11.620;2023-03-16T01:19:26;96725.66;;;-1.79;100.00
46724;BME280;32463;48.298;11.620;2023-03-16T01:21:53;96721.31;;;-1.77;100.00
46724;BME280;32463;48.298;11.620;2023-03-16T01:24:20;96723.88;;;-1.77;100.00
46724;BME280;32463;48.298;11.620;2023-03-16T01:26:48;96723.28;;;-1.65;100.00
46724;BME280;32463;48.298;11.620;2023-03-16T01:29:17;96722.06;;;-1.75;100.00
46724;BME280;32463;48.298;11.620;2023-03-16T01:31:43;96718.19;;;-1.82;100.00
46724;BME280;32463;48.298;11.620;2023-03-16T01:34:10;96714.00;;;-1.83;100.00
46724;BME280;32463;48.298;11.620;2023-03-16T01:36:41;96719.25;;;-1.86;100.00
46724;BME280;32463;48.298;11.620;2023-03-16T01:39:10;96712.81;;;-1.93;100.00
46724;BME280;32463;48.298;11.620;2023-03-16T01:41:38;96716.09;;;-1.91;100.00
46724;BME280;32463;48.298;11.620;2023-03-16T01:44:05;96712.94;;;-1.96;100.00
46724;BME280;32463;48.298;11.620;2023-03-16T01:46:32;96696.06;;;-1.97;100.00
46724;BME280;32463;48.298;11.620;2023-03-16T01:51:54;96704.44;;;-1.95;100.00
46724;BME280;32463;48.298;11.620;2023-03-16T01:54:25;96705.94;;;-1.91;100.00
46724;BME280;32463;48.298;11.620;2023-03-16T01:57:07;96700.94;;;-1.76;100.00
46724;BME280;32463;48.298;11.620;2023-03-16T02:02:13;96703.84;;;-1.83;100.00
46724;BME280;32463;48.298;11.620;2023-03-16T02:04:42;96699.81;;;-1.87;100.00
46724;BME280;32463;48.298;11.620;2023-03-16T02:07:10;96709.53;;;-1.95;100.00
46724;BME280;32463;48.298;11.620;2023-03-16T02:09:44;96709.66;;;-1.98;100.00
46724;BME280;32463;48.298;11.620;2023-03-16T02:12:12;96706.16;;;-1.96;100.00
46724;BME280;32463;48.298;11.620;2023-03-16T02:14:47;96702.19;;;-2.01;100.00
46724;BME280;32463;48.298;11.620;2023-03-16T02:17:15;96700.19;;;-1.95;100.00
46724;BME280;32463;48.298;11.620;2023-03-16T02:22:49;96708.69;;;-1.96;100.00
46724;BME280;32463;48.298;11.620;2023-03-16T02:25:21;96699.63;;;-2.01;100.00
46724;BME280;32463;48.298;11.620;2023-03-16T02:30:33;96713.84;;;-2.15;100.00
46724;BME280;32463;48.298;11.620;2023-03-16T02:33:00;96710.53;;;-2.17;100.00
46724;BME280;32463;48.298;11.620;2023-03-16T02:35:29;96706.72;;;-2.08;100.00
46724;BME280;32463;48.298;11.620;2023-03-16T02:37:56;96708.31;;;-2.06;100.00
46724;BME280;32463;48.298;11.620;2023-03-16T02:40:25;96710.16;;;-2.09;100.00
46724;BME280;32463;48.298;11.620;2023-03-16T02:43:06;96702.53;;;-2.09;100.00
46724;BME280;32463;48.298;11.620;2023-03-16T02:45:56;96705.91;;;-2.09;100.00
46724;BME280;32463;48.298;11.620;2023-03-16T02:48:29;96696.78;;;-2.13;100.00
46724;BME280;32463;48.298;11.620;2023-03-16T02:50:57;96698.88;;;-2.21;100.00
46724;BME280;32463;48.298;11.620;2023-03-16T02:53:24;96685.16;;;-2.35;100.00
46724;BME280;32463;48.298;11.620;2023-03-16T02:55:50;96691.66;;;-2.47;100.00
46724;BME280;32463;48.298;11.620;2023-03-16T02:58:16;96690.16;;;-2.51;100.00
46724;BME280;32463;48.298;11.620;2023-03-16T03:00:43;96689.59;;;-2.58;100.00
46724;BME280;32463;48.298;11.620;2023-03-16T03:03:10;96689.03;;;-2.64;100.00
46724;BME280;32463;48.298;11.620;2023-03-16T03:05:38;96692.47;;;-2.65;100.00
46724;BME280;32463;48.298;11.620;2023-03-16T03:08:05;96689.94;;;-2.65;100.00
46724;BME280;32463;48.298;11.620;2023-03-16T03:10:31;96691.72;;;-2.67;100.00
46724;BME280;32463;48.298;11.620;2023-03-16T03:12:58;96676.69;;;-2.72;100.00
46724;BME280;32463;48.298;11.620;2023-03-16T03:15:24;96683.84;;;-2.61;100.00
46724;BME280;32463;48.298;11.620;2023-03-16T03:17:51;96686.84;;;-2.53;100.00
46724;BME280;32463;48.298;11.620;2023-03-16T03:20:18;96698.50;;;-2.49;100.00
46724;BME280;32463;48.298;11.620;2023-03-16T03:22:49;96702.84;;;-2.51;100.00
46724;BME280;32463;48.298;11.620;2023-03-16T03:25:17;96694.75;;;-2.59;100.00
46724;BME280;32463;48.298;11.620;2023-03-16T03:27:45;96698.44;;;-2.66;100.00
46724;BME280;32463;48.298;11.620;2023-03-16T03:30:15;96696.47;;;-2.79;100.00
46724;BME280;32463;48.298;11.620;2023-03-16T03:32:42;96698.53;;;-2.87;100.00
46724;BME280;32463;48.298;11.620;2023-03-16T03:35:11;96696.75;;;-2.85;100.00
46724;BME280;32463;48.298;11.620;2023-03-16T03:37:39;96688.25;;;-2.84;100.00
46724;BME280;32463;48.298;11.620;2023-03-16T03:40:09;96683.31;;;-2.87;100.00
46724;BME280;32463;48.298;11.620;2023-03-16T03:42:37;96678.97;;;-2.85;100.00
46724;BME280;32463;48.298;11.620;2023-03-16T03:45:04;96687.56;;;-2.87;100.00
46724;BME280;32463;48.298;11.620;2023-03-16T03:47:32;96679.44;;;-2.95;100.00
46724;BME280;32463;48.298;11.620;2023-03-16T03:49:58;96673.69;;;-2.61;100.00
46724;BME280;32463;48.298;11.620;2023-03-16T03:52:25;96671.06;;;-2.60;100.00
46724;BME280;32463;48.298;11.620;2023-03-16T03:54:51;96675.88;;;-2.54;100.00
46724;BME280;32463;48.298;11.620;2023-03-16T03:57:17;96677.13;;;-2.62;100.00
46724;BME280;32463;48.298;11.620;2023-03-16T03:59:44;96681.09;;;-2.57;100.00
46724;BME280;32463;48.298;11.620;2023-03-16T04:02:11;96681.09;;;-2.57;100.00
46724;BME280;32463;48.298;11.620;2023-03-16T04:04:39;96681.03;;;-2.55;100.00
46724;BME280;32463;48.298;11.620;2023-03-16T04:07:06;96685.06;;;-2.70;100.00
46724;BME280;32463;48.298;11.620;2023-03-16T04:09:33;96672.25;;;-2.86;100.00
46724;BME280;32463;48.298;11.620;2023-03-16T04:12:01;96685.97;;;-2.90;100.00
46724;BME280;32463;48.298;11.620;2023-03-16T04:14:28;96680.41;;;-2.98;100.00
46724;BME280;32463;48.298;11.620;2023-03-16T04:16:55;96675.53;;;-3.02;100.00
46724;BME280;32463;48.298;11.620;2023-03-16T04:19:23;96685.53;;;-2.99;100.00
46724;BME280;32463;48.298;11.620;2023-03-16T04:21:50;96687.25;;;-3.00;100.00
46724;BME280;32463;48.298;11.620;2023-03-16T04:24:17;96683.50;;;-3.10;100.00
46724;BME280;32463;48.298;11.620;2023-03-16T04:26:45;96684.38;;;-3.11;100.00
46724;BME280;32463;48.298;11.620;2023-03-16T04:29:12;96694.47;;;-3.10;100.00
46724;BME280;32463;48.298;11.620;2023-03-16T04:31:42;96714.69;;;-3.08;100.00
46724;BME280;32463;48.298;11.620;2023-03-16T04:34:10;96706.44;;;-3.13;100.00
46724;BME280;32463;48.298;11.620;2023-03-16T04:36:37;96703.03;;;-3.12;100.00
46724;BME280;32463;48.298;11.620;2023-03-16T04:39:05;96687.06;;;-3.14;100.00
46724;BME280;32463;48.298;11.620;2023-03-16T04:41:31;96698.09;;;-3.15;100.00
46724;BME280;32463;48.298;11.620;2023-03-16T04:43:58;96689.31;;;-3.08;100.00
46724;BME280;32463;48.298;11.620;2023-03-16T04:46:25;96681.53;;;-2.85;100.00
46724;BME280;32463;48.298;11.620;2023-03-16T04:48:52;96678.72;;;-2.79;100.00
46724;BME280;32463;48.298;11.620;2023-03-16T04:51:23;96687.75;;;-2.73;100.00
46724;BME280;32463;48.298;11.620;2023-03-16T04:53:50;96684.38;;;-2.74;100.00
46724;BME280;32463;48.298;11.620;2023-03-16T04:56:16;96671.75;;;-2.75;100.00
46724;BME280;32463;48.298;11.620;2023-03-16T04:58:44;96680.06;;;-2.72;100.00
46724;BME280;32463;48.298;11.620;2023-03-16T05:01:11;96673.75;;;-2.63;100.00
46724;BME280;32463;48.298;11.620;2023-03-16T05:03:38;96676.97;;;-2.59;100.00
46724;BME280;32463;48.298;11.620;2023-03-16T05:06:05;96668.59;;;-2.61;100.00
46724;BME280;32463;48.298;11.620;2023-03-16T05:08:32;96660.81;;;-2.76;100.00
46724;BME280;32463;48.298;11.620;2023-03-16T05:10:58;96657.78;;;-2.84;100.00
46724;BME280;32463;48.298;11.620;2023-03-16T05:13:25;96649.00;;;-2.95;100.00
46724;BME280;32463;48.298;11.620;2023-03-16T05:15:51;96665.19;;;-2.98;100.00
46724;BME280;32463;48.298;11.620;2023-03-16T05:18:21;96667.59;;;-2.95;100.00
46724;BME280;32463;48.298;11.620;2023-03-16T05:20:51;96661.50;;;-2.91;100.00
46724;BME280;32463;48.298;11.620;2023-03-16T05:23:18;96657.66;;;-2.81;100.00
46724;BME280;32463;48.298;11.620;2023-03-16T05:25:46;96652.59;;;-2.81;100.00
46724;BME280;32463;48.298;11.620;2023-03-16T05:28:13;96658.72;;;-2.67;100.00
46724;BME280;32463;48.298;11.620;2023-03-16T05:30:41;96650.22;;;-2.66;100.00
46724;BME280;32463;48.298;11.620;2023-03-16T05:33:09;96658.13;;;-2.54;100.00
46724;BME280;32463;48.298;11.620;2023-03-16T05:35:36;96662.84;;;-2.46;100.00
46724;BME280;32463;48.298;11.620;2023-03-16T05:38:03;96644.19;;;-2.45;100.00
46724;BME280;32463;48.298;11.620;2023-03-16T05:40:30;96645.00;;;-2.45;100.00
46724;BME280;32463;48.298;11.620;2023-03-16T05:42:57;96642.38;;;-2.43;100.00
46724;BME280;32463;48.298;11.620;2023-03-16T05:45:25;96654.34;;;-2.45;100.00
46724;BME280;32463;48.298;11.620;2023-03-16T05:47:51;96649.09;;;-2.42;100.00
46724;BME280;32463;48.298;11.620;2023-03-16T05:50:18;96646.72;;;-2.45;100.00
46724;BME280;32463;48.298;11.620;2023-03-16T05:52:45;96650.88;;;-2.44;100.00
46724;BME280;32463;48.298;11.620;2023-03-16T05:55:14;96646.41;;;-2.39;100.00
46724;BME280;32463;48.298;11.620;2023-03-16T05:57:41;96643.72;;;-2.36;100.00
46724;BME280;32463;48.298;11.620;2023-03-16T06:00:10;96651.66;;;-2.25;100.00
46724;BME280;32463;48.298;11.620;2023-03-16T06:02:44;96655.09;;;-2.26;100.00
46724;BME280;32463;48.298;11.620;2023-03-16T06:05:12;96642.25;;;-2.23;100.00
46724;BME280;32463;48.298;11.620;2023-03-16T06:07:39;96656.91;;;-2.11;100.00
46724;BME280;32463;48.298;11.620;2023-03-16T06:10:06;96654.22;;;-2.08;100.00
46724;BME280;32463;48.298;11.620;2023-03-16T06:12:33;96664.91;;;-2.01;100.00
46724;BME280;32463;48.298;11.620;2023-03-16T06:15:00;96663.78;;;-1.95;100.00
46724;BME280;32463;48.298;11.620;2023-03-16T06:17:27;96668.44;;;-1.86;100.00
46724;BME280;32463;48.298;11.620;2023-03-16T06:19:53;96653.69;;;-1.80;100.00
46724;BME280;32463;48.298;11.620;2023-03-16T06:22:20;96658.19;;;-1.67;100.00
46724;BME280;32463;48.298;11.620;2023-03-16T06:24:48;96660.19;;;-1.57;100.00
46724;BME280;32463;48.298;11.620;2023-03-16T06:27:14;96662.25;;;-1.48;100.00
46724;BME280;32463;48.298;11.620;2023-03-16T06:29:41;96659.41;;;-1.42;100.00
46724;BME280;32463;48.298;11.620;2023-03-16T06:32:07;96678.66;;;-1.20;100.00
46724;BME280;32463;48.298;11.620;2023-03-16T06:34:34;96665.78;;;-1.17;100.00
46724;BME280;32463;48.298;11.620;2023-03-16T06:37:01;96665.53;;;-1.13;100.00
46724;BME280;32463;48.298;11.620;2023-03-16T06:39:28;96666.34;;;-0.95;100.00
46724;BME280;32463;48.298;11.620;2023-03-16T06:41:55;96665.97;;;-0.89;100.00
46724;BME280;32463;48.298;11.620;2023-03-16T06:44:21;96665.03;;;-0.71;100.00
46724;BME280;32463;48.298;11.620;2023-03-16T06:46:51;96665.09;;;-0.56;100.00
46724;BME280;32463;48.298;11.620;2023-03-16T06:49:17;96671.66;;;-0.52;100.00
46724;BME280;32463;48.298;11.620;2023-03-16T06:51:44;96654.75;;;-0.53;100.00
46724;BME280;32463;48.298;11.620;2023-03-16T06:54:13;96652.03;;;-0.50;100.00
46724;BME280;32463;48.298;11.620;2023-03-16T06:56:40;96662.59;;;-0.26;100.00
46724;BME280;32463;48.298;11.620;2023-03-16T06:59:07;96669.34;;;-0.10;100.00
46724;BME280;32463;48.298;11.620;2023-03-16T07:01:36;96655.69;;;-0.09;100.00
46724;BME280;32463;48.298;11.620;2023-03-16T07:04:02;96661.72;;;0.05;100.00
46724;BME280;32463;48.298;11.620;2023-03-16T07:06:29;96652.44;;;0.04;100.00
46724;BME280;32463;48.298;11.620;2023-03-16T07:08:56;96661.06;;;0.01;100.00
46724;BME280;32463;48.298;11.620;2023-03-16T07:11:23;96656.78;;;0.02;100.00
46724;BME280;32463;48.298;11.620;2023-03-16T07:13:49;96669.28;;;0.06;100.00
46724;BME280;32463;48.298;11.620;2023-03-16T07:16:16;96665.63;;;0.26;100.00
46724;BME280;32463;48.298;11.620;2023-03-16T07:18:42;96651.78;;;0.30;100.00
46724;BME280;32463;48.298;11.620;2023-03-16T07:21:09;96657.72;;;0.45;100.00
46724;BME280;32463;48.298;11.620;2023-03-16T07:23:36;96662.03;;;0.58;100.00
46724;BME280;32463;48.298;11.620;2023-03-16T07:26:02;96661.31;;;0.71;100.00
46724;BME280;32463;48.298;11.620;2023-03-16T07:28:32;96662.78;;;0.75;100.00
46724;BME280;32463;48.298;11.620;2023-03-16T07:30:59;96660.13;;;1.05;100.00
46724;BME280;32463;48.298;11.620;2023-03-16T07:33:25;96654.22;;;0.90;100.00
46724;BME280;32463;48.298;11.620;2023-03-16T07:35:52;96664.91;;;1.23;100.00
46724;BME280;32463;48.298;11.620;2023-03-16T07:38:18;96658.16;;;1.37;100.00
46724;BME280;32463;48.298;11.620;2023-03-16T07:40:46;96648.31;;;1.30;100.00
46724;BME280;32463;48.298;11.620;2023-03-16T07:43:12;96659.16;;;1.48;100.00
46724;BME280;32463;48.298;11.620;2023-03-16T07:45:38;96653.03;;;1.51;100.00
46724;BME280;32463;48.298;11.620;2023-03-16T07:48:05;96656.63;;;1.61;100.00
46724;BME280;32463;48.298;11.620;2023-03-16T07:50:32;96657.25;;;1.79;100.00
46724;BME280;32463;48.298;11.620;2023-03-16T07:52:58;96661.13;;;1.84;100.00
46724;BME280;32463;48.298;11.620;2023-03-16T07:55:25;96665.81;;;2.05;100.00
46724;BME280;32463;48.298;11.620;2023-03-16T07:57:51;96668.31;;;2.31;100.00
46724;BME280;32463;48.298;11.620;2023-03-16T08:00:18;96672.47;;;2.20;100.00
46724;BME280;32463;48.298;11.620;2023-03-16T08:02:48;96678.44;;;2.33;100.00
46724;BME280;32463;48.298;11.620;2023-03-16T08:05:14;96683.81;;;2.16;100.00
46724;BME280;32463;48.298;11.620;2023-03-16T08:07:41;96680.25;;;1.91;100.00
46724;BME280;32463;48.298;11.620;2023-03-16T08:10:08;96683.63;;;2.19;100.00
46724;BME280;32463;48.298;11.620;2023-03-16T08:12:35;96689.78;;;2.29;100.00
46724;BME280;32463;48.298;11.620;2023-03-16T08:15:02;96685.81;;;2.50;100.00
46724;BME280;32463;48.298;11.620;2023-03-16T08:17:30;96680.03;;;2.21;100.00
46724;BME280;32463;48.298;11.620;2023-03-16T08:19:57;96686.13;;;2.46;100.00
46724;BME280;32463;48.298;11.620;2023-03-16T08:22:24;96702.16;;;1.95;100.00
46724;BME280;32463;48.298;11.620;2023-03-16T08:24:55;96695.47;;;1.80;100.00
46724;BME280;32463;48.298;11.620;2023-03-16T08:27:22;96696.78;;;2.00;100.00
46724;BME280;32463;48.298;11.620;2023-03-16T08:29:53;96699.16;;;2.16;100.00
46724;BME280;32463;48.298;11.620;2023-03-16T08:32:20;96698.94;;;1.79;100.00
46724;BME280;32463;48.298;11.620;2023-03-16T08:34:46;96697.31;;;1.78;100.00
46724;BME280;32463;48.298;11.620;2023-03-16T08:37:14;96701.44;;;1.93;100.00
46724;BME280;32463;48.298;11.620;2023-03-16T08:39:42;96699.66;;;2.08;100.00
46724;BME280;32463;48.298;11.620;2023-03-16T08:42:09;96691.91;;;2.10;100.00
46724;BME280;32463;48.298;11.620;2023-03-16T08:44:39;96698.16;;;2.70;100.00
46724;BME280;32463;48.298;11.620;2023-03-16T08:47:06;96684.03;;;3.03;100.00
46724;BME280;32463;48.298;11.620;2023-03-16T08:49:34;96698.56;;;2.90;100.00
46724;BME280;32463;48.298;11.620;2023-03-16T08:52:01;96700.78;;;3.07;100.00
46724;BME280;32463;48.298;11.620;2023-03-16T08:54:29;96686.59;;;3.39;100.00
46724;BME280;32463;48.298;11.620;2023-03-16T08:56:56;96680.09;;;3.35;100.00
46724;BME280;32463;48.298;11.620;2023-03-16T08:59:23;96680.72;;;3.26;100.00
46724;BME280;32463;48.298;11.620;2023-03-16T09:01:49;96674.00;;;3.73;100.00
46724;BME280;32463;48.298;11.620;2023-03-16T09:04:16;96679.63;;;3.42;100.00
46724;BME280;32463;48.298;11.620;2023-03-16T09:09:09;96670.19;;;4.02;100.00
46724;BME280;32463;48.298;11.620;2023-03-16T09:11:35;96669.69;;;4.56;100.00
46724;BME280;32463;48.298;11.620;2023-03-16T09:14:02;96667.81;;;4.58;100.00
46724;BME280;32463;48.298;11.620;2023-03-16T09:16:28;96671.66;;;4.64;100.00
46724;BME280;32463;48.298;11.620;2023-03-16T09:18:56;96667.56;;;4.61;100.00
46724;BME280;32463;48.298;11.620;2023-03-16T09:21:22;96681.16;;;4.97;100.00
46724;BME280;32463;48.298;11.620;2023-03-16T09:23:50;96675.88;;;4.65;100.00
46724;BME280;32463;48.298;11.620;2023-03-16T09:26:16;96661.78;;;4.93;100.00
46724;BME280;32463;48.298;11.620;2023-03-16T09:28:43;96666.34;;;5.12;100.00
46724;BME280;32463;48.298;11.620;2023-03-16T09:31:20;96679.06;;;4.91;100.00
46724;BME280;32463;48.298;11.620;2023-03-16T09:33:47;96671.09;;;5.72;100.00
46724;BME280;32463;48.298;11.620;2023-03-16T09:36:13;96668.47;;;5.83;100.00
46724;BME280;32463;48.298;11.620;2023-03-16T09:38:41;96671.28;;;5.91;100.00
46724;BME280;32463;48.298;11.620;2023-03-16T09:41:08;96672.19;;;6.01;100.00
46724;BME280;32463;48.298;11.620;2023-03-16T09:43:50;96669.84;;;6.10;100.00
46724;BME280;32463;48.298;11.620;2023-03-16T09:46:26;96670.56;;;6.00;100.00
46724;BME280;32463;48.298;11.620;2023-03-16T09:48:55;96667.69;;;6.15;100.00
46724;BME280;32463;48.298;11.620;2023-03-16T09:54:54;96657.31;;;6.37;100.00
46724;BME280;32463;48.298;11.620;2023-03-16T09:56:53;96654.06;;;6.35;100.00
46724;BME280;32463;48.298;11.620;2023-03-16T09:59:21;96653.03;;;6.89;100.00
46724;BME280;32463;48.298;11.620;2023-03-16T10:12:56;96648.56;;;7.81;87.25
46724;BME280;32463;48.298;11.620;2023-03-16T10:15:27;96651.41;;;7.77;80.84
46724;BME280;32463;48.298;11.620;2023-03-16T10:18:02;96652.00;;;8.20;86.00
46724;BME280;32463;48.298;11.620;2023-03-16T10:20:33;96656.59;;;8.26;72.14
46724;BME280;32463;48.298;11.620;2023-03-16T10:23:12;96653.31;;;7.75;72.96
46724;BME280;32463;48.298;11.620;2023-03-16T10:25:45;96654.97;;;8.83;71.30
46724;BME280;32463;48.298;11.620;2023-03-16T10:28:15;96653.94;;;8.37;69.19
46724;BME280;32463;48.298;11.620;2023-03-16T10:30:42;96644.81;;;8.14;70.44
46724;BME280;32463;48.298;11.620;2023-03-16T10:33:33;96644.03;;;8.89;68.64
46724;BME280;32463;48.298;11.620;2023-03-16T10:36:34;96637.31;;;8.30;71.62
46724;BME280;32463;48.298;11.620;2023-03-16T10:39:06;96643.06;;;8.43;73.09
46724;BME280;32463;48.298;11.620;2023-03-16T10:41:37;96628.84;;;8.86;70.33
46724;BME280;32463;48.298;11.620;2023-03-16T10:44:23;96635.16;;;8.54;67.82
46724;BME280;32463;48.298;11.620;2023-03-16T10:47:02;96627.38;;;9.10;70.52
46724;BME280;32463;48.298;11.620;2023-03-16T10:54:59;96621.44;;;9.55;61.00
46724;BME280;32463;48.298;11.620;2023-03-16T10:57:31;96607.47;;;9.66;60.28
46724;BME280;32463;48.298;11.620;2023-03-16T11:00:11;96612.97;;;9.35;64.76
46724;BME280;32463;48.298;11.620;2023-03-16T11:02:46;96617.06;;;9.28;59.32
46724;BME280;32463;48.298;11.620;2023-03-16T11:05:24;96605.75;;;9.02;63.21
46724;BME280;32463;48.298;11.620;2023-03-16T11:07:58;96604.28;;;8.90;64.40
46724;BME280;32463;48.298;11.620;2023-03-16T11:10:31;96595.63;;;9.81;63.35
46724;BME280;32463;48.298;11.620;2023-03-16T11:13:12;96597.69;;;9.60;62.82
46724;BME280;32463;48.298;11.620;2023-03-16T11:20:52;96590.03;;;10.39;59.11
46724;BME280;32463;48.298;11.620;2023-03-16T11:23:27;96568.56;;;10.29;60.29
46724;BME280;32463;48.298;11.620;2023-03-16T11:25:55;96577.28;;;11.47;57.78
46724;BME280;32463;48.298;11.620;2023-03-16T11:28:35;96577.78;;;11.09;55.67
46724;BME280;32463;48.298;11.620;2023-03-16T11:31:21;96571.81;;;10.83;58.04
46724;BME280;32463;48.298;11.620;2023-03-16T11:33:52;96567.41;;;11.09;60.61
46724;BME280;32463;48.298;11.620;2023-03-16T11:51:00;96558.94;;;10.65;56.53
46724;BME280;32463;48.298;11.620;2023-03-16T11:53:47;96537.78;;;11.86;56.22
46724;BME280;32463;48.298;11.620;2023-03-16T11:56:30;96544.09;;;11.17;57.73
46724;BME280;32463;48.298;11.620;2023-03-16T12:02:32;96545.75;;;11.34;55.45
46724;BME280;32463;48.298;11.620;2023-03-16T12:05:24;96530.63;;;12.29;50.95
46724;BME280;32463;48.298;11.620;2023-03-16T12:10:33;96526.88;;;12.23;51.36
46724;BME280;32463;48.298;11.620;2023-03-16T12:15:54;96508.88;;;13.55;48.29
46724;BME280;32463;48.298;11.620;2023-03-16T12:19:10;96508.53;;;13.81;47.50
46724;BME280;32463;48.298;11.620;2023-03-16T12:21:36;96502.50;;;12.40;50.58
46724;BME280;32463;48.298;11.620;2023-03-16T12:24:07;96512.41;;;12.29;49.36
46724;BME280;32463;48.298;11.620;2023-03-16T12:26:39;96497.16;;;12.26;47.95
46724;BME280;32463;48.298;11.620;2023-03-16T12:29:43;96499.31;;;12.77;49.39
46724;BME280;32463;48.298;11.620;2023-03-16T12:32:45;96488.41;;;13.75;46.40
46724;BME280;32463;48.298;11.620;2023-03-16T12:40:47;96476.22;;;13.90;44.77
46724;BME280;32463;48.298;11.620;2023-03-16T12:43:30;96475.78;;;14.98;43.50
46724;BME280;32463;48.298;11.620;2023-03-16T12:48:44;96461.28;;;14.22;43.70
46724;BME280;32463;48.298;11.620;2023-03-16T12:51:12;96478.31;;;14.76;44.26
46724;BME280;32463;48.298;11.620;2023-03-16T12:53:41;96472.03;;;14.86;43.33
46724;BME280;32463;48.298;11.620;2023-03-16T12:56:25;96453.72;;;15.36;43.50
46724;BME280;32463;48.298;11.620;2023-03-16T12:58:56;96454.44;;;15.30;43.49
46724;BME280;32463;48.298;11.620;2023-03-16T13:01:29;96471.75;;;14.95;42.13
46724;BME280;32463;48.298;11.620;2023-03-16T13:04:00;96457.75;;;14.14;42.53
46724;BME280;32463;48.298;11.620;2023-03-16T13:06:34;96447.00;;;15.48;38.19
46724;BME280;32463;48.298;11.620;2023-03-16T13:09:03;96455.66;;;14.62;41.21
46724;BME280;32463;48.298;11.620;2023-03-16T13:11:44;96446.56;;;13.91;40.29
46724;BME280;32463;48.298;11.620;2023-03-16T13:14:40;96455.78;;;13.33;43.22
46724;BME280;32463;48.298;11.620;2023-03-16T13:17:26;96430.94;;;13.91;42.41
46724;BME280;32463;48.298;11.620;2023-03-16T13:22:48;96448.72;;;15.56;40.30
46724;BME280;32463;48.298;11.620;2023-03-16T13:27:57;96441.94;;;15.62;37.30
46724;BME280;32463;48.298;11.620;2023-03-16T13:30:27;96437.31;;;16.41;36.94
46724;BME280;32463;48.298;11.620;2023-03-16T13:32:59;96430.75;;;16.24;36.80
46724;BME280;32463;48.298;11.620;2023-03-16T13:35:27;96437.44;;;15.56;42.22
46724;BME280;32463;48.298;11.620;2023-03-16T13:38:02;96433.50;;;14.29;44.00
46724;BME280;32463;48.298;11.620;2023-03-16T13:40:31;96443.41;;;14.77;43.36
46724;BME280;32463;48.298;11.620;2023-03-16T13:43:00;96436.81;;;14.81;39.94
46724;BME280;32463;48.298;11.620;2023-03-16T13:45:31;96436.59;;;14.47;40.58
46724;BME280;32463;48.298;11.620;2023-03-16T13:48:01;96436.13;;;16.43;35.51
46724;BME280;32463;48.298;11.620;2023-03-16T13:50:32;96437.09;;;15.23;36.26
46724;BME280;32463;48.298;11.620;2023-03-16T13:53:01;96429.81;;;16.03;39.24
46724;BME280;32463;48.298;11.620;2023-03-16T13:55:31;96415.84;;;14.01;43.49
46724;BME280;32463;48.298;11.620;2023-03-16T13:57:58;96430.44;;;14.69;41.99
46724;BME280;32463;48.298;11.620;2023-03-16T14:00:34;96429.84;;;14.53;43.70
46724;BME280;32463;48.298;11.620;2023-03-16T14:03:34;96416.75;;;14.08;44.28
46724;BME280;32463;48.298;11.620;2023-03-16T14:06:03;96417.47;;;12.88;45.53
46724;BME280;32463;48.298;11.620;2023-03-16T14:08:30;96411.75;;;13.24;46.10
46724;BME280;32463;48.298;11.620;2023-03-16T14:10:58;96418.38;;;12.72;46.47
46724;BME280;32463;48.298;11.620;2023-03-16T14:16:00;96406.28;;;11.61;49.40
46724;BME280;32463;48.298;11.620;2023-03-16T14:18:42;96416.97;;;11.25;50.44